createdAt,value
2023-05-04T00:00:21.066Z,86.73
2023-05-04T00:03:09.165Z,86.73
2023-05-04T00:05:36.896Z,86.77
2023-05-04T00:08:05.304Z,86.81
2023-05-04T00:10:33.167Z,86.87
2023-05-04T00:13:00.950Z,86.92
2023-05-04T00:15:30.490Z,86.94
2023-05-04T00:17:58.326Z,86.95
2023-05-04T00:20:26.178Z,86.93
2023-05-04T00:22:54.374Z,86.89
2023-05-04T00:25:22.125Z,86.93
2023-05-04T00:27:49.794Z,86.96
2023-05-04T00:30:17.466Z,86.96
2023-05-04T00:32:45.275Z,86.97
2023-05-04T00:35:13.158Z,86.90
2023-05-04T00:37:43.815Z,86.93
2023-05-04T00:40:12.201Z,86.89
2023-05-04T00:42:39.869Z,86.88
2023-05-04T00:45:08.162Z,86.91
2023-05-04T00:47:36.299Z,86.91
2023-05-04T00:50:05.154Z,87.01
2023-05-04T00:52:35.055Z,87.08
2023-05-04T00:55:03.287Z,87.17
2023-05-04T00:57:31.035Z,87.30
2023-05-04T00:59:58.803Z,87.35
2023-05-04T01:02:26.677Z,87.36
2023-05-04T01:04:54.509Z,87.28
2023-05-04T01:07:50.951Z,87.30
2023-05-04T01:10:35.825Z,87.41
2023-05-04T01:13:15.202Z,87.48
2023-05-04T01:15:43.336Z,87.59
2023-05-04T01:18:11.954Z,87.67
2023-05-04T01:20:39.953Z,87.69
2023-05-04T01:23:08.258Z,87.62
2023-05-04T01:25:46.399Z,87.53
2023-05-04T01:28:22.398Z,87.55
2023-05-04T01:30:56.001Z,87.55
2023-05-04T01:33:24.711Z,87.56
2023-05-04T01:35:52.591Z,87.62
2023-05-04T01:38:20.428Z,87.65
2023-05-04T01:40:48.126Z,87.61
2023-05-04T01:43:16.249Z,87.54
2023-05-04T01:45:44.443Z,87.50
2023-05-04T01:48:12.405Z,87.48
2023-05-04T01:50:40.098Z,87.42
2023-05-04T01:53:07.843Z,87.46
2023-05-04T01:55:35.598Z,87.49
2023-05-04T01:58:03.857Z,87.49
2023-05-04T02:00:32.203Z,87.56
2023-05-04T02:03:00.114Z,87.43
2023-05-04T02:05:28.009Z,87.40
2023-05-04T02:07:56.175Z,87.35
2023-05-04T02:10:24.426Z,87.41
2023-05-04T02:12:52.861Z,87.52
2023-05-04T02:15:20.888Z,87.47
2023-05-04T02:17:48.671Z,87.45
2023-05-04T02:20:16.568Z,87.45
2023-05-04T02:22:45.172Z,87.42
2023-05-04T02:25:13.380Z,87.38
2023-05-04T02:27:41.084Z,87.37
2023-05-04T02:30:09.742Z,87.42
2023-05-04T02:32:37.582Z,87.49
2023-05-04T02:35:05.650Z,87.51
2023-05-04T02:37:34.070Z,87.50
2023-05-04T02:40:02.397Z,87.43
2023-05-04T02:42:30.272Z,87.43
2023-05-04T02:44:57.982Z,87.51
2023-05-04T02:47:25.699Z,87.51
2023-05-04T02:49:53.570Z,87.52
2023-05-04T02:52:21.679Z,87.43
2023-05-04T02:54:52.365Z,87.40
2023-05-04T02:57:20.924Z,87.46
2023-05-04T02:59:48.661Z,87.47
2023-05-04T03:02:16.389Z,87.52
2023-05-04T03:04:44.099Z,87.49
2023-05-04T03:07:11.930Z,87.48
2023-05-04T03:09:39.615Z,87.50
2023-05-04T03:12:07.309Z,87.54
2023-05-04T03:14:35.044Z,87.52
2023-05-04T03:17:02.764Z,87.51
2023-05-04T03:19:30.844Z,87.56
2023-05-04T03:21:58.558Z,87.59
2023-05-04T03:24:26.329Z,87.63
2023-05-04T03:26:54.791Z,87.55
2023-05-04T03:29:22.529Z,87.54
2023-05-04T03:31:50.911Z,87.57
2023-05-04T03:34:21.696Z,87.56
2023-05-04T03:36:49.806Z,87.54
2023-05-04T03:39:18.073Z,87.53
2023-05-04T03:41:45.779Z,87.55
2023-05-04T03:44:13.488Z,87.59
2023-05-04T03:46:41.822Z,87.62
2023-05-04T03:49:09.518Z,87.68
2023-05-04T03:51:37.242Z,87.70
2023-05-04T03:54:05.011Z,87.70
2023-05-04T03:56:32.673Z,87.71
2023-05-04T03:59:00.422Z,87.74
2023-05-04T04:01:28.598Z,87.78
2023-05-04T04:03:56.868Z,87.82
2023-05-04T04:06:24.645Z,87.86
2023-05-04T04:08:52.342Z,87.88
2023-05-04T04:11:20.060Z,87.87
2023-05-04T04:13:48.797Z,87.79
2023-05-04T04:16:16.608Z,87.72
2023-05-04T04:18:44.326Z,87.67
2023-05-04T04:21:12.491Z,87.63
2023-05-04T04:23:40.237Z,87.54
2023-05-04T04:26:08.480Z,87.49
2023-05-04T04:28:36.821Z,87.44
2023-05-04T04:31:04.648Z,87.36
2023-05-04T04:33:32.983Z,87.30
2023-05-04T04:36:00.661Z,87.21
2023-05-04T04:38:28.435Z,87.20
2023-05-04T04:40:56.654Z,87.16
2023-05-04T04:43:24.843Z,87.09
2023-05-04T04:45:54.054Z,87.04
2023-05-04T04:48:23.042Z,86.92
2023-05-04T04:50:50.970Z,86.84
2023-05-04T04:53:19.041Z,86.74
2023-05-04T04:55:47.777Z,86.72
2023-05-04T04:58:16.421Z,86.71
2023-05-04T05:00:45.454Z,86.62
2023-05-04T05:03:13.574Z,86.52
2023-05-04T05:05:41.566Z,86.39
2023-05-04T05:08:09.216Z,86.28
2023-05-04T05:10:37.502Z,86.16
2023-05-04T05:13:06.835Z,86.03
2023-05-04T05:15:35.061Z,85.85
2023-05-04T05:18:03.183Z,85.77
2023-05-04T05:20:30.932Z,85.73
2023-05-04T05:22:59.012Z,85.62
2023-05-04T05:25:27.467Z,85.47
2023-05-04T05:27:55.763Z,85.44
2023-05-04T05:30:23.578Z,85.45
2023-05-04T05:32:51.373Z,85.32
2023-05-04T05:35:19.117Z,85.29
2023-05-04T05:37:48.882Z,85.15
2023-05-04T05:40:18.684Z,84.97
2023-05-04T05:42:46.972Z,84.78
2023-05-04T05:45:14.993Z,84.73
2023-05-04T05:47:42.827Z,84.76
2023-05-04T05:50:13.926Z,84.65
2023-05-04T05:52:41.702Z,84.46
2023-05-04T05:55:10.155Z,84.41
2023-05-04T05:57:38.314Z,84.29
2023-05-04T06:00:07.149Z,84.22
2023-05-04T06:02:35.334Z,84.04
2023-05-04T06:05:03.717Z,83.51
2023-05-04T06:07:31.572Z,83.35
2023-05-04T06:09:59.969Z,83.52
2023-05-04T06:12:28.268Z,83.32
2023-05-04T06:14:56.206Z,82.93
2023-05-04T06:17:23.977Z,82.63
2023-05-04T06:19:52.105Z,82.33
2023-05-04T06:22:20.381Z,81.93
2023-05-04T06:24:48.177Z,81.60
2023-05-04T06:27:16.460Z,81.04
2023-05-04T06:29:44.140Z,80.89
2023-05-04T06:32:11.861Z,80.49
2023-05-04T06:34:40.050Z,79.91
2023-05-04T06:37:07.728Z,79.61
2023-05-04T06:39:35.619Z,79.09
2023-05-04T06:42:03.872Z,79.14
2023-05-04T06:44:37.419Z,79.04
2023-05-04T06:47:05.042Z,79.03
2023-05-04T06:49:33.984Z,79.04
2023-05-04T06:52:02.072Z,78.30
2023-05-04T06:54:31.860Z,78.15
2023-05-04T06:57:03.484Z,78.49
2023-05-04T06:59:31.392Z,77.94
2023-05-04T07:01:59.115Z,77.32
2023-05-04T07:04:27.357Z,77.70
2023-05-04T07:06:55.605Z,77.74
2023-05-04T07:09:23.326Z,77.62
2023-05-04T07:11:51.079Z,77.60
2023-05-04T07:14:18.780Z,77.21
2023-05-04T07:16:47.141Z,76.80
2023-05-04T07:19:14.878Z,77.07
2023-05-04T07:21:43.361Z,76.24
2023-05-04T07:24:11.130Z,74.44
2023-05-04T07:26:38.992Z,72.63
2023-05-04T07:29:07.152Z,72.46
2023-05-04T07:31:35.415Z,74.13
2023-05-04T07:34:03.153Z,74.38
2023-05-04T07:36:31.587Z,73.52
2023-05-04T07:38:59.318Z,72.16
2023-05-04T07:41:27.454Z,69.68
2023-05-04T07:43:55.597Z,66.63
2023-05-04T07:46:23.285Z,67.71
2023-05-04T07:48:51.128Z,68.45
2023-05-04T07:51:20.047Z,68.91
2023-05-04T07:53:48.199Z,68.25
2023-05-04T07:56:15.897Z,66.87
2023-05-04T07:58:44.140Z,62.46
2023-05-04T08:01:12.539Z,63.54
2023-05-04T08:03:40.263Z,63.50
2023-05-04T08:06:08.559Z,62.93
2023-05-04T08:08:36.313Z,62.86
2023-05-04T08:11:18.520Z,62.05
2023-05-04T08:13:49.340Z,63.38
2023-05-04T08:16:17.308Z,62.70
2023-05-04T08:18:45.514Z,61.42
2023-05-04T08:21:13.328Z,60.10
2023-05-04T08:23:41.038Z,61.41
2023-05-04T08:26:09.271Z,59.65
2023-05-04T08:28:39.528Z,61.96
2023-05-04T08:31:09.808Z,62.00
2023-05-04T08:33:38.025Z,60.94
2023-05-04T08:36:07.831Z,58.92
2023-05-04T08:38:36.197Z,59.34
2023-05-04T08:41:07.366Z,58.86
2023-05-04T08:43:36.795Z,59.29
2023-05-04T08:46:06.224Z,57.71
2023-05-04T08:48:37.600Z,57.82
2023-05-04T08:51:07.149Z,58.87
2023-05-04T08:53:37.475Z,57.65
2023-05-04T08:56:09.321Z,58.89
2023-05-04T08:58:43.920Z,58.77
2023-05-04T09:01:12.752Z,59.79
2023-05-04T09:03:41.418Z,59.49
2023-05-04T09:06:09.775Z,59.47
2023-05-04T09:08:37.584Z,57.02
2023-05-04T09:11:12.922Z,58.01
2023-05-04T09:17:13.634Z,58.26
2023-05-04T09:19:44.153Z,58.12
2023-05-04T09:22:20.238Z,57.95
2023-05-04T09:28:14.216Z,56.94
2023-05-04T09:31:06.688Z,56.43
2023-05-04T09:33:34.796Z,55.71
2023-05-04T09:36:21.143Z,54.55
2023-05-04T09:38:49.645Z,56.42
2023-05-04T09:41:17.418Z,56.05
2023-05-04T09:43:45.134Z,56.39
2023-05-04T09:46:19.764Z,56.40
2023-05-04T09:48:57.649Z,54.74
2023-05-04T09:51:30.437Z,55.47
2023-05-04T09:54:03.200Z,55.09
2023-05-04T09:56:38.709Z,54.92
2023-05-04T09:59:06.626Z,53.41
2023-05-04T10:01:35.226Z,53.98
2023-05-04T10:04:04.568Z,54.89
2023-05-04T10:06:33.136Z,54.14
2023-05-04T10:09:01.984Z,54.87
2023-05-04T10:11:30.921Z,54.70
2023-05-04T10:13:58.748Z,54.60
2023-05-04T10:16:50.407Z,51.05
2023-05-04T10:19:27.852Z,53.76
2023-05-04T10:22:23.542Z,54.11
2023-05-04T10:25:19.812Z,54.30
2023-05-04T10:28:07.823Z,54.74
2023-05-04T10:30:36.799Z,53.95
2023-05-04T10:33:04.627Z,53.36
2023-05-04T10:35:32.681Z,54.02
2023-05-04T10:38:00.878Z,54.42
2023-05-04T10:40:39.441Z,53.81
2023-05-04T10:43:08.830Z,53.39
2023-05-04T10:45:44.024Z,53.46
2023-05-04T10:48:12.746Z,54.54
2023-05-04T10:50:44.333Z,54.07
2023-05-04T10:53:13.466Z,53.04
2023-05-04T10:55:46.846Z,53.28
2023-05-04T10:58:21.479Z,52.34
2023-05-04T11:00:51.859Z,52.33
2023-05-04T11:03:22.564Z,52.93
2023-05-04T11:05:52.888Z,52.64
2023-05-04T11:08:25.968Z,53.05
2023-05-04T11:11:02.679Z,52.92
2023-05-04T11:13:32.037Z,51.52
2023-05-04T11:16:00.494Z,52.08
2023-05-04T11:18:35.046Z,51.30
2023-05-04T11:21:03.397Z,51.98
2023-05-04T11:23:31.528Z,52.59
2023-05-04T11:26:06.925Z,52.20
2023-05-04T11:28:37.503Z,52.26
2023-05-04T11:31:16.259Z,51.46
2023-05-04T11:33:55.071Z,50.62
2023-05-04T11:36:23.343Z,52.22
2023-05-04T11:38:51.597Z,52.61
2023-05-04T11:41:26.131Z,51.20
2023-05-04T11:43:54.260Z,51.32
2023-05-04T11:46:25.345Z,51.62
2023-05-04T11:48:56.185Z,50.09
2023-05-04T11:51:27.056Z,49.62
2023-05-04T11:53:55.873Z,50.28
2023-05-04T11:56:26.162Z,50.63
2023-05-04T11:58:53.876Z,49.65
2023-05-04T12:01:21.833Z,50.24
2023-05-04T12:03:57.313Z,48.08
2023-05-04T12:06:33.448Z,49.77
2023-05-04T12:09:04.451Z,49.72
2023-05-04T12:11:32.901Z,47.36
2023-05-04T12:14:11.925Z,47.90
2023-05-04T12:16:53.760Z,49.57
2023-05-04T12:19:22.157Z,50.13
2023-05-04T12:21:52.276Z,49.21
2023-05-04T12:24:24.469Z,49.78
2023-05-04T12:26:52.525Z,50.11
2023-05-04T12:29:20.271Z,49.49
2023-05-04T12:31:48.604Z,49.24
2023-05-04T12:34:16.997Z,49.74
2023-05-04T12:36:45.184Z,49.14
2023-05-04T12:39:12.943Z,48.74
2023-05-04T12:41:41.098Z,47.66
2023-05-04T12:44:11.551Z,47.29
2023-05-04T12:46:39.818Z,47.71
2023-05-04T12:49:08.055Z,47.50
2023-05-04T12:51:36.581Z,48.09
2023-05-04T12:54:04.370Z,46.46
2023-05-04T12:56:33.725Z,46.82
2023-05-04T12:59:01.515Z,46.11
2023-05-04T13:01:29.240Z,47.28
2023-05-04T13:03:57.414Z,47.23
2023-05-04T13:06:25.824Z,47.29
2023-05-04T13:08:53.512Z,47.13
2023-05-04T13:11:21.218Z,47.14
2023-05-04T13:13:49.009Z,46.75
2023-05-04T13:16:17.460Z,46.45
2023-05-04T13:18:45.775Z,47.69
2023-05-04T13:21:13.461Z,47.98
2023-05-04T13:23:41.200Z,48.34
2023-05-04T13:26:08.881Z,47.63
2023-05-04T13:28:38.656Z,47.78
2023-05-04T13:31:08.932Z,47.45
2023-05-04T13:33:40.229Z,46.74
2023-05-04T13:36:08.116Z,47.85
2023-05-04T13:38:35.868Z,48.50
2023-05-04T13:41:03.665Z,47.42
2023-05-04T13:43:31.945Z,47.42
2023-05-04T13:46:04.654Z,48.17
2023-05-04T13:48:35.043Z,47.34
2023-05-04T13:51:04.118Z,46.60
2023-05-04T13:53:31.927Z,48.55
2023-05-04T13:56:00.463Z,49.53
2023-05-04T13:58:28.662Z,49.58
2023-05-04T14:00:56.514Z,49.33
2023-05-04T14:03:24.289Z,49.34
2023-05-04T14:05:52.626Z,47.83
2023-05-04T14:08:20.897Z,49.43
2023-05-04T14:10:49.227Z,49.58
2023-05-04T14:13:17.095Z,48.74
2023-05-04T14:15:46.766Z,48.78
2023-05-04T14:18:14.491Z,48.09
2023-05-04T14:20:42.400Z,47.78
2023-05-04T14:23:10.729Z,47.58
2023-05-04T14:25:45.512Z,46.25
2023-05-04T14:28:13.279Z,44.25
2023-05-04T14:30:40.990Z,46.17
2023-05-04T14:33:08.961Z,44.79
2023-05-04T14:35:44.115Z,46.14
2023-05-04T14:38:13.512Z,46.49
2023-05-04T14:40:41.383Z,48.24
2023-05-04T14:43:09.088Z,48.40
2023-05-04T14:45:36.919Z,48.62
2023-05-04T14:48:05.203Z,48.28
2023-05-04T14:50:33.573Z,46.55
2023-05-04T14:53:01.850Z,46.58
2023-05-04T14:55:30.923Z,45.25
2023-05-04T14:57:58.637Z,46.66
2023-05-04T15:00:26.422Z,46.95
2023-05-04T15:02:54.178Z,46.54
2023-05-04T15:05:22.582Z,46.56
2023-05-04T15:07:50.859Z,46.33
2023-05-04T15:10:18.656Z,44.82
2023-05-04T15:12:46.402Z,46.21
2023-05-04T15:15:14.364Z,46.75
2023-05-04T15:17:42.167Z,46.24
2023-05-04T15:20:11.502Z,48.02
2023-05-04T15:22:39.661Z,45.65
2023-05-04T15:25:07.927Z,47.44
2023-05-04T15:27:35.946Z,47.92
2023-05-04T15:30:04.796Z,47.64
2023-05-04T15:32:32.876Z,46.68
2023-05-04T15:35:05.366Z,47.66
2023-05-04T15:37:34.787Z,47.82
2023-05-04T15:40:04.748Z,47.35
2023-05-04T15:42:32.770Z,47.34
2023-05-04T15:45:00.534Z,46.91
2023-05-04T15:47:28.282Z,44.92
2023-05-04T15:49:56.593Z,45.62
2023-05-04T15:52:24.931Z,46.17
2023-05-04T15:54:52.700Z,45.59
2023-05-04T15:57:20.680Z,46.97
2023-05-04T15:59:49.818Z,47.61
2023-05-04T16:02:17.868Z,46.75
2023-05-04T16:04:46.066Z,45.93
2023-05-04T16:07:14.638Z,43.92
2023-05-04T16:09:42.398Z,45.23
2023-05-04T16:12:10.113Z,45.10
2023-05-04T16:14:38.102Z,45.55
2023-05-04T16:17:05.924Z,45.50
2023-05-04T16:19:34.198Z,45.08
2023-05-04T16:22:02.383Z,45.67
2023-05-04T16:24:30.160Z,45.72
2023-05-04T16:26:59.252Z,45.85
2023-05-04T16:29:26.913Z,45.98
2023-05-04T16:31:54.620Z,46.08
2023-05-04T16:34:22.758Z,45.51
2023-05-04T16:36:51.143Z,46.60
2023-05-04T16:39:19.132Z,46.61
2023-05-04T16:41:48.369Z,46.11
2023-05-04T16:44:16.089Z,45.65
2023-05-04T16:46:43.893Z,45.20
2023-05-04T16:49:14.602Z,46.85
2023-05-04T16:51:43.511Z,47.38
2023-05-04T16:54:11.392Z,46.82
2023-05-04T16:56:39.174Z,47.28
2023-05-04T16:59:06.858Z,47.41
2023-05-04T17:01:35.473Z,47.38
2023-05-04T17:04:03.879Z,47.10
2023-05-04T17:06:32.286Z,47.39
2023-05-04T17:09:00.164Z,46.77
2023-05-04T17:11:27.913Z,47.17
2023-05-04T17:13:56.126Z,47.73
2023-05-04T17:16:23.965Z,48.22
2023-05-04T17:18:52.217Z,48.29
2023-05-04T17:21:20.727Z,47.71
2023-05-04T17:23:48.980Z,47.19
2023-05-04T17:26:16.847Z,47.77
2023-05-04T17:28:44.592Z,48.70
2023-05-04T17:31:12.788Z,48.55
2023-05-04T17:33:41.139Z,48.63
2023-05-04T17:36:12.209Z,48.47
2023-05-04T17:38:41.114Z,48.69
2023-05-04T17:41:09.938Z,48.90
2023-05-04T17:43:38.941Z,49.10
2023-05-04T17:46:06.726Z,49.25
2023-05-04T17:48:36.513Z,49.51
2023-05-04T17:51:09.089Z,49.80
2023-05-04T17:53:36.899Z,49.96
2023-05-04T17:56:04.965Z,51.88
2023-05-04T17:58:32.675Z,53.30
2023-05-04T18:01:00.346Z,54.67
2023-05-04T18:03:28.675Z,55.12
2023-05-04T18:05:57.058Z,54.39
2023-05-04T18:08:24.776Z,54.00
2023-05-04T18:10:52.452Z,54.40
2023-05-04T18:13:20.671Z,55.05
2023-05-04T18:15:48.750Z,55.53
2023-05-04T18:18:17.170Z,55.02
2023-05-04T18:20:45.500Z,54.78
2023-05-04T18:23:13.212Z,56.24
2023-05-04T18:25:40.901Z,57.94
2023-05-04T18:28:08.711Z,59.35
2023-05-04T18:30:36.522Z,59.54
2023-05-04T18:33:04.951Z,59.43
2023-05-04T18:35:33.133Z,58.65
2023-05-04T18:38:00.822Z,58.32
2023-05-04T18:40:29.251Z,58.43
2023-05-04T18:42:57.121Z,58.45
2023-05-04T18:45:25.184Z,59.03
2023-05-04T18:47:53.489Z,59.39
2023-05-04T18:50:21.958Z,59.84
2023-05-04T18:52:49.626Z,60.04
2023-05-04T18:55:17.400Z,60.65
2023-05-04T18:57:45.112Z,60.87
2023-05-04T19:00:14.049Z,61.59
2023-05-04T19:02:42.226Z,62.31
2023-05-04T19:05:11.260Z,62.92
2023-05-04T19:07:40.824Z,63.03
2023-05-04T19:10:09.470Z,63.11
2023-05-04T19:12:37.911Z,63.20
2023-05-04T19:15:06.961Z,63.70
2023-05-04T19:17:35.386Z,63.67
2023-05-04T19:20:03.645Z,63.80
2023-05-04T19:22:31.434Z,63.78
2023-05-04T19:24:59.122Z,64.33
2023-05-04T19:27:27.719Z,64.30
2023-05-04T19:29:56.481Z,64.44
2023-05-04T19:32:25.155Z,64.42
2023-05-04T19:34:53.230Z,64.86
2023-05-04T19:37:21.148Z,65.19
2023-05-04T19:39:49.272Z,65.30
2023-05-04T19:42:17.453Z,65.28
2023-05-04T19:44:45.919Z,65.36
2023-05-04T19:47:13.746Z,65.95
2023-05-04T19:49:41.665Z,66.06
2023-05-04T19:52:09.350Z,66.35
2023-05-04T19:54:38.417Z,66.39
2023-05-04T19:57:06.785Z,66.72
2023-05-04T19:59:35.788Z,66.80
2023-05-04T20:02:03.904Z,66.83
2023-05-04T20:04:31.719Z,66.91
2023-05-04T20:06:59.421Z,66.73
2023-05-04T20:09:27.207Z,66.82
2023-05-04T20:11:55.765Z,66.96
2023-05-04T20:14:24.055Z,67.11
2023-05-04T20:16:52.693Z,67.32
2023-05-04T20:19:20.859Z,67.39
2023-05-04T20:21:48.803Z,67.30
2023-05-04T20:24:17.026Z,67.35
2023-05-04T20:26:45.789Z,67.45
2023-05-04T20:29:13.965Z,67.39
2023-05-04T20:31:41.808Z,67.63
2023-05-04T20:34:09.785Z,67.77
2023-05-04T20:36:37.579Z,68.05
2023-05-04T20:39:06.879Z,68.52
2023-05-04T20:41:35.108Z,68.44
2023-05-04T20:44:04.427Z,68.60
2023-05-04T20:46:32.467Z,68.69
2023-05-04T20:49:02.923Z,68.73
2023-05-04T20:51:31.608Z,68.79
2023-05-04T20:54:00.068Z,69.08
2023-05-04T20:56:28.542Z,69.02
2023-05-04T20:58:56.765Z,69.18
2023-05-04T21:01:24.519Z,69.13
2023-05-04T21:03:52.521Z,69.32
2023-05-04T21:06:21.085Z,69.44
2023-05-04T21:08:48.777Z,69.68
2023-05-04T21:11:17.031Z,69.88
2023-05-04T21:13:45.354Z,69.69
2023-05-04T21:16:13.928Z,69.71
2023-05-04T21:18:41.866Z,69.89
2023-05-04T21:21:09.514Z,69.84
2023-05-04T21:23:37.274Z,69.92
2023-05-04T21:26:05.866Z,69.77
2023-05-04T21:28:34.187Z,70.10
2023-05-04T21:31:06.875Z,70.08
2023-05-04T21:33:36.097Z,70.41
2023-05-04T21:36:14.498Z,70.57
2023-05-04T21:38:42.934Z,71.02
2023-05-04T21:41:15.317Z,71.10
2023-05-04T21:43:44.433Z,71.25
2023-05-04T21:46:12.850Z,71.37
2023-05-04T21:48:40.869Z,71.31
2023-05-04T21:51:09.112Z,71.64
2023-05-04T21:53:37.352Z,71.59
2023-05-04T21:56:09.297Z,71.83
2023-05-04T21:58:39.776Z,71.79
2023-05-04T22:01:08.136Z,71.82
2023-05-04T22:03:36.060Z,71.93
2023-05-04T22:06:04.180Z,71.88
2023-05-04T22:08:31.916Z,72.26
2023-05-04T22:10:59.686Z,72.79
2023-05-04T22:13:27.967Z,73.04
2023-05-04T22:15:55.702Z,73.47
2023-05-04T22:18:23.846Z,73.61
2023-05-04T22:20:52.076Z,73.44
2023-05-04T22:23:20.047Z,73.45
2023-05-04T22:25:47.894Z,73.45
2023-05-04T22:28:16.182Z,73.65
2023-05-04T22:30:43.894Z,73.93
2023-05-04T22:33:11.603Z,74.16
2023-05-04T22:35:39.282Z,74.39
2023-05-04T22:38:07.036Z,74.68
2023-05-04T22:40:34.765Z,74.94
2023-05-04T22:43:02.402Z,74.76
2023-05-04T22:45:30.069Z,74.67
2023-05-04T22:47:58.406Z,74.80
2023-05-04T22:50:27.270Z,75.18
2023-05-04T22:52:55.044Z,75.38
2023-05-04T22:55:22.934Z,75.56
2023-05-04T22:57:50.726Z,75.62
2023-05-04T23:00:18.811Z,75.63
2023-05-04T23:02:47.150Z,75.92
2023-05-04T23:05:14.920Z,75.79
2023-05-04T23:07:42.708Z,75.87
2023-05-04T23:10:10.935Z,75.97
2023-05-04T23:12:38.621Z,75.97
2023-05-04T23:15:07.381Z,75.97
2023-05-04T23:17:38.376Z,76.15
2023-05-04T23:20:08.230Z,76.26
2023-05-04T23:22:36.319Z,76.34
2023-05-04T23:25:04.507Z,76.29
2023-05-04T23:27:32.203Z,76.21
2023-05-04T23:29:59.915Z,76.27
2023-05-04T23:32:27.642Z,76.28
2023-05-04T23:34:55.413Z,76.38
2023-05-04T23:37:23.244Z,76.39
2023-05-04T23:39:51.391Z,76.57
2023-05-04T23:42:19.482Z,76.71
2023-05-04T23:44:47.160Z,76.92
2023-05-04T23:47:14.881Z,77.02
2023-05-04T23:49:42.538Z,77.03
2023-05-04T23:52:10.237Z,76.93
2023-05-04T23:54:38.342Z,77.06
2023-05-04T23:57:10.168Z,77.39
2023-05-04T23:59:37.928Z,77.28
